CLT weather

Charlotte Douglas International Airport
Charlotte, North Carolina, United States

Public forecast

Using degrees Fahrenheit for public forecast. Weather courtesy of forecast.io.

Current aviation weather report (METAR) for Charlotte Douglas International Airport

Retrieved 2019/10/17 03:52 UTC (21 minutes ago):

KCLT 170352Z 34005KT 10SM FEW250 09/04 A2983 RMK AO2 SLP099 T00890044

Aviation forecast (TAF) for Charlotte Douglas International Airport

Retrieved 2019-10-17 00:22 UTC (4 hours ago):

TAF KCLT 162320Z 1700/1806 31011KT P6SM FEW040 FM170500 30007KT P6SM SKC FM180000 32003KT P6SM SKC